sensor_id;sensor_type;location;lat;lon;timestamp;temperature;humidity
59282;DHT22;45054;52.062;10.010;2024-02-23T00:01:51;9.50;99.90
59282;DHT22;45054;52.062;10.010;2024-02-23T00:04:17;9.50;99.90
59282;DHT22;45054;52.062;10.010;2024-02-23T00:06:43;9.50;99.90
59282;DHT22;45054;52.062;10.010;2024-02-23T00:09:08;9.50;99.90
59282;DHT22;45054;52.062;10.010;2024-02-23T00:11:34;9.40;99.90
59282;DHT22;45054;52.062;10.010;2024-02-23T00:13:59;9.40;99.90
59282;DHT22;45054;52.062;10.010;2024-02-23T00:16:26;9.40;99.90
59282;DHT22;45054;52.062;10.010;2024-02-23T00:18:52;9.40;99.90
59282;DHT22;45054;52.062;10.010;2024-02-23T00:21:17;9.30;99.90
59282;DHT22;45054;52.062;10.010;2024-02-23T00:23:43;9.30;99.90
59282;DHT22;45054;52.062;10.010;2024-02-23T00:26:09;9.30;99.90
59282;DHT22;45054;52.062;10.010;2024-02-23T00:28:34;9.30;99.90
59282;DHT22;45054;52.062;10.010;2024-02-23T00:31:00;9.20;99.90
59282;DHT22;45054;52.062;10.010;2024-02-23T00:33:27;9.20;99.90
59282;DHT22;45054;52.062;10.010;2024-02-23T00:35:52;9.20;99.90
59282;DHT22;45054;52.062;10.010;2024-02-23T00:38:18;9.20;99.90
59282;DHT22;45054;52.062;10.010;2024-02-23T00:40:44;9.20;99.90
59282;DHT22;45054;52.062;10.010;2024-02-23T00:43:09;9.10;99.90
59282;DHT22;45054;52.062;10.010;2024-02-23T00:45:35;9.10;99.90
59282;DHT22;45054;52.062;10.010;2024-02-23T00:48:01;9.10;99.90
59282;DHT22;45054;52.062;10.010;2024-02-23T00:50:28;9.10;99.90
59282;DHT22;45054;52.062;10.010;2024-02-23T00:52:53;9.10;99.90
59282;DHT22;45054;52.062;10.010;2024-02-23T00:55:19;9.10;99.90
59282;DHT22;45054;52.062;10.010;2024-02-23T00:57:44;9.10;99.90
59282;DHT22;45054;52.062;10.010;2024-02-23T01:00:11;9.10;99.90
59282;DHT22;45054;52.062;10.010;2024-02-23T01:02:37;9.10;99.90
59282;DHT22;45054;52.062;10.010;2024-02-23T01:05:03;9.10;99.90
59282;DHT22;45054;52.062;10.010;2024-02-23T01:07:30;9.00;99.90
59282;DHT22;45054;52.062;10.010;2024-02-23T01:09:55;9.00;99.90
59282;DHT22;45054;52.062;10.010;2024-02-23T01:12:21;9.00;99.90
59282;DHT22;45054;52.062;10.010;2024-02-23T01:14:46;9.00;99.90
59282;DHT22;45054;52.062;10.010;2024-02-23T01:17:12;9.00;99.90
59282;DHT22;45054;52.062;10.010;2024-02-23T01:19:38;8.90;99.90
59282;DHT22;45054;52.062;10.010;2024-02-23T01:22:03;8.90;99.90
59282;DHT22;45054;52.062;10.010;2024-02-23T01:24:30;8.90;99.90
59282;DHT22;45054;52.062;10.010;2024-02-23T01:26:56;8.90;99.90
59282;DHT22;45054;52.062;10.010;2024-02-23T01:29:22;8.90;99.90
59282;DHT22;45054;52.062;10.010;2024-02-23T01:31:48;8.80;99.90
59282;DHT22;45054;52.062;10.010;2024-02-23T01:34:13;8.80;99.90
59282;DHT22;45054;52.062;10.010;2024-02-23T01:36:39;8.80;99.90
59282;DHT22;45054;52.062;10.010;2024-02-23T01:39:05;8.70;99.90
59282;DHT22;45054;52.062;10.010;2024-02-23T01:41:32;8.70;99.90
59282;DHT22;45054;52.062;10.010;2024-02-23T01:43:57;8.50;99.90
59282;DHT22;45054;52.062;10.010;2024-02-23T01:46:23;8.50;99.90
59282;DHT22;45054;52.062;10.010;2024-02-23T01:48:48;8.40;99.90
59282;DHT22;45054;52.062;10.010;2024-02-23T01:51:14;8.30;99.90
59282;DHT22;45054;52.062;10.010;2024-02-23T01:53:40;8.20;99.90
59282;DHT22;45054;52.062;10.010;2024-02-23T01:56:06;8.20;99.90
59282;DHT22;45054;52.062;10.010;2024-02-23T01:58:33;8.10;99.90
59282;DHT22;45054;52.062;10.010;2024-02-23T02:01:00;8.00;99.90
59282;DHT22;45054;52.062;10.010;2024-02-23T02:03:25;8.00;99.90
59282;DHT22;45054;52.062;10.010;2024-02-23T02:05:52;7.90;99.90
59282;DHT22;45054;52.062;10.010;2024-02-23T02:08:18;7.90;99.90
59282;DHT22;45054;52.062;10.010;2024-02-23T02:10:43;7.90;99.90
59282;DHT22;45054;52.062;10.010;2024-02-23T02:13:09;7.80;99.90
59282;DHT22;45054;52.062;10.010;2024-02-23T02:15:36;7.80;99.90
59282;DHT22;45054;52.062;10.010;2024-02-23T02:18:01;7.80;99.90
59282;DHT22;45054;52.062;10.010;2024-02-23T02:20:28;7.60;99.90
59282;DHT22;45054;52.062;10.010;2024-02-23T02:22:57;7.60;99.90
59282;DHT22;45054;52.062;10.010;2024-02-23T02:25:22;7.50;99.90
59282;DHT22;45054;52.062;10.010;2024-02-23T02:27:48;7.50;99.90
59282;DHT22;45054;52.062;10.010;2024-02-23T02:30:14;7.40;99.90
59282;DHT22;45054;52.062;10.010;2024-02-23T02:32:41;7.50;99.90
59282;DHT22;45054;52.062;10.010;2024-02-23T02:35:07;7.50;99.90
59282;DHT22;45054;52.062;10.010;2024-02-23T02:37:33;7.50;99.90
59282;DHT22;45054;52.062;10.010;2024-02-23T02:39:58;7.30;99.90
59282;DHT22;45054;52.062;10.010;2024-02-23T02:42:24;7.20;99.90
59282;DHT22;45054;52.062;10.010;2024-02-23T02:44:49;7.20;99.90
59282;DHT22;45054;52.062;10.010;2024-02-23T02:47:15;7.10;99.90
59282;DHT22;45054;52.062;10.010;2024-02-23T02:49:42;7.10;99.90
59282;DHT22;45054;52.062;10.010;2024-02-23T02:52:08;7.10;99.90
59282;DHT22;45054;52.062;10.010;2024-02-23T02:54:33;7.10;99.90
59282;DHT22;45054;52.062;10.010;2024-02-23T02:56:59;7.10;99.90
59282;DHT22;45054;52.062;10.010;2024-02-23T02:59:24;7.10;99.90
59282;DHT22;45054;52.062;10.010;2024-02-23T03:01:50;7.10;99.90
59282;DHT22;45054;52.062;10.010;2024-02-23T03:04:15;7.10;99.90
59282;DHT22;45054;52.062;10.010;2024-02-23T03:06:42;6.90;99.90
59282;DHT22;45054;52.062;10.010;2024-02-23T03:09:08;6.90;99.90
59282;DHT22;45054;52.062;10.010;2024-02-23T03:11:34;6.80;99.90
59282;DHT22;45054;52.062;10.010;2024-02-23T03:13:59;6.80;99.90
59282;DHT22;45054;52.062;10.010;2024-02-23T03:16:25;6.70;99.90
59282;DHT22;45054;52.062;10.010;2024-02-23T03:18:50;6.70;99.90
59282;DHT22;45054;52.062;10.010;2024-02-23T03:21:16;6.70;99.90
59282;DHT22;45054;52.062;10.010;2024-02-23T03:23:43;6.70;99.90
59282;DHT22;45054;52.062;10.010;2024-02-23T03:26:08;6.80;99.90
59282;DHT22;45054;52.062;10.010;2024-02-23T03:28:34;6.80;99.90
59282;DHT22;45054;52.062;10.010;2024-02-23T03:31:00;6.80;99.90
59282;DHT22;45054;52.062;10.010;2024-02-23T03:33:26;6.80;99.90
59282;DHT22;45054;52.062;10.010;2024-02-23T03:35:52;6.80;99.90
59282;DHT22;45054;52.062;10.010;2024-02-23T03:38:17;6.80;99.90
59282;DHT22;45054;52.062;10.010;2024-02-23T03:40:44;6.80;99.90
59282;DHT22;45054;52.062;10.010;2024-02-23T03:43:10;6.80;99.90
59282;DHT22;45054;52.062;10.010;2024-02-23T03:45:35;6.90;99.90
59282;DHT22;45054;52.062;10.010;2024-02-23T03:48:03;6.80;99.90
59282;DHT22;45054;52.062;10.010;2024-02-23T03:50:29;6.70;99.90
59282;DHT22;45054;52.062;10.010;2024-02-23T03:52:55;6.60;99.90
59282;DHT22;45054;52.062;10.010;2024-02-23T03:55:21;6.60;99.90
59282;DHT22;45054;52.062;10.010;2024-02-23T03:57:48;6.60;99.90
59282;DHT22;45054;52.062;10.010;2024-02-23T04:00:14;6.60;99.90
59282;DHT22;45054;52.062;10.010;2024-02-23T04:02:40;6.60;99.90
59282;DHT22;45054;52.062;10.010;2024-02-23T04:05:06;6.60;99.90
59282;DHT22;45054;52.062;10.010;2024-02-23T04:07:32;6.60;99.90
59282;DHT22;45054;52.062;10.010;2024-02-23T04:09:58;6.60;99.90
59282;DHT22;45054;52.062;10.010;2024-02-23T04:12:23;6.60;99.90
59282;DHT22;45054;52.062;10.010;2024-02-23T04:14:50;6.60;99.90
59282;DHT22;45054;52.062;10.010;2024-02-23T04:17:16;6.60;99.90
59282;DHT22;45054;52.062;10.010;2024-02-23T04:19:41;6.60;99.90
59282;DHT22;45054;52.062;10.010;2024-02-23T04:22:08;6.60;99.90
59282;DHT22;45054;52.062;10.010;2024-02-23T04:24:34;6.50;99.90
59282;DHT22;45054;52.062;10.010;2024-02-23T04:27:00;6.60;99.90
59282;DHT22;45054;52.062;10.010;2024-02-23T04:29:25;6.60;99.90
59282;DHT22;45054;52.062;10.010;2024-02-23T04:31:52;6.60;99.90
59282;DHT22;45054;52.062;10.010;2024-02-23T04:34:18;6.50;99.90
59282;DHT22;45054;52.062;10.010;2024-02-23T04:36:43;6.50;99.90
59282;DHT22;45054;52.062;10.010;2024-02-23T04:39:09;6.50;99.90
59282;DHT22;45054;52.062;10.010;2024-02-23T04:41:34;6.50;99.90
59282;DHT22;45054;52.062;10.010;2024-02-23T04:44:00;6.50;99.90
59282;DHT22;45054;52.062;10.010;2024-02-23T04:46:25;6.60;99.90
59282;DHT22;45054;52.062;10.010;2024-02-23T04:48:52;6.60;99.90
59282;DHT22;45054;52.062;10.010;2024-02-23T04:51:18;6.60;99.90
59282;DHT22;45054;52.062;10.010;2024-02-23T04:53:43;6.60;99.90
59282;DHT22;45054;52.062;10.010;2024-02-23T04:56:09;6.60;99.90
59282;DHT22;45054;52.062;10.010;2024-02-23T04:58:35;6.60;99.90
59282;DHT22;45054;52.062;10.010;2024-02-23T05:01:00;6.60;99.90
59282;DHT22;45054;52.062;10.010;2024-02-23T05:03:26;6.60;99.90
59282;DHT22;45054;52.062;10.010;2024-02-23T05:05:53;6.60;99.90
59282;DHT22;45054;52.062;10.010;2024-02-23T05:08:18;6.60;99.90
59282;DHT22;45054;52.062;10.010;2024-02-23T05:10:44;6.60;99.90
59282;DHT22;45054;52.062;10.010;2024-02-23T05:13:09;6.60;99.90
59282;DHT22;45054;52.062;10.010;2024-02-23T05:15:35;6.60;99.90
59282;DHT22;45054;52.062;10.010;2024-02-23T05:18:00;6.60;99.90
59282;DHT22;45054;52.062;10.010;2024-02-23T05:20:26;6.60;99.90
59282;DHT22;45054;52.062;10.010;2024-02-23T05:22:53;6.60;99.90
59282;DHT22;45054;52.062;10.010;2024-02-23T05:25:19;6.70;99.90
59282;DHT22;45054;52.062;10.010;2024-02-23T05:27:44;6.70;99.90
59282;DHT22;45054;52.062;10.010;2024-02-23T05:30:11;6.70;99.90
59282;DHT22;45054;52.062;10.010;2024-02-23T05:32:37;6.60;99.90
59282;DHT22;45054;52.062;10.010;2024-02-23T05:35:03;6.60;99.90
59282;DHT22;45054;52.062;10.010;2024-02-23T05:37:28;6.60;99.90
59282;DHT22;45054;52.062;10.010;2024-02-23T05:39:55;6.60;99.90
59282;DHT22;45054;52.062;10.010;2024-02-23T05:42:21;6.60;99.90
59282;DHT22;45054;52.062;10.010;2024-02-23T05:44:46;6.60;99.90
59282;DHT22;45054;52.062;10.010;2024-02-23T05:47:12;6.60;99.90
59282;DHT22;45054;52.062;10.010;2024-02-23T05:49:38;6.60;99.90
59282;DHT22;45054;52.062;10.010;2024-02-23T05:52:03;6.60;99.90
59282;DHT22;45054;52.062;10.010;2024-02-23T05:54:29;6.60;99.90
59282;DHT22;45054;52.062;10.010;2024-02-23T05:56:56;6.50;99.90
59282;DHT22;45054;52.062;10.010;2024-02-23T05:59:21;6.50;99.90
59282;DHT22;45054;52.062;10.010;2024-02-23T06:01:47;6.50;99.90
59282;DHT22;45054;52.062;10.010;2024-02-23T06:04:12;6.50;99.90
59282;DHT22;45054;52.062;10.010;2024-02-23T06:06:41;6.50;99.90
59282;DHT22;45054;52.062;10.010;2024-02-23T06:09:06;6.50;99.90
59282;DHT22;45054;52.062;10.010;2024-02-23T06:11:32;6.50;99.90
59282;DHT22;45054;52.062;10.010;2024-02-23T06:13:59;6.50;99.90
59282;DHT22;45054;52.062;10.010;2024-02-23T06:16:24;6.50;99.90
59282;DHT22;45054;52.062;10.010;2024-02-23T06:18:50;6.60;99.90
59282;DHT22;45054;52.062;10.010;2024-02-23T06:21:16;6.50;99.90
59282;DHT22;45054;52.062;10.010;2024-02-23T06:23:42;6.50;99.90
59282;DHT22;45054;52.062;10.010;2024-02-23T06:26:08;6.50;99.90
59282;DHT22;45054;52.062;10.010;2024-02-23T06:28:34;6.50;99.90
59282;DHT22;45054;52.062;10.010;2024-02-23T06:31:01;6.50;99.90
59282;DHT22;45054;52.062;10.010;2024-02-23T06:33:26;6.50;99.90
59282;DHT22;45054;52.062;10.010;2024-02-23T06:35:52;6.50;99.90
59282;DHT22;45054;52.062;10.010;2024-02-23T06:38:18;6.50;99.90
59282;DHT22;45054;52.062;10.010;2024-02-23T06:40:43;6.50;99.90
59282;DHT22;45054;52.062;10.010;2024-02-23T06:43:09;6.50;99.90
59282;DHT22;45054;52.062;10.010;2024-02-23T06:45:35;6.50;99.90
59282;DHT22;45054;52.062;10.010;2024-02-23T06:48:02;6.40;99.90
59282;DHT22;45054;52.062;10.010;2024-02-23T06:50:27;6.40;99.90
59282;DHT22;45054;52.062;10.010;2024-02-23T06:52:53;6.40;99.90
59282;DHT22;45054;52.062;10.010;2024-02-23T06:55:18;6.50;99.90
59282;DHT22;45054;52.062;10.010;2024-02-23T06:57:44;6.50;99.90
59282;DHT22;45054;52.062;10.010;2024-02-23T07:00:10;6.50;99.90
59282;DHT22;45054;52.062;10.010;2024-02-23T07:02:36;6.50;99.90
59282;DHT22;45054;52.062;10.010;2024-02-23T07:05:03;6.50;99.90
59282;DHT22;45054;52.062;10.010;2024-02-23T07:07:29;6.50;99.90
59282;DHT22;45054;52.062;10.010;2024-02-23T07:09:54;6.50;99.90
59282;DHT22;45054;52.062;10.010;2024-02-23T07:12:20;6.50;99.90
59282;DHT22;45054;52.062;10.010;2024-02-23T07:14:45;6.50;99.90
59282;DHT22;45054;52.062;10.010;2024-02-23T07:17:11;6.50;99.90
59282;DHT22;45054;52.062;10.010;2024-02-23T07:19:37;6.50;99.90
59282;DHT22;45054;52.062;10.010;2024-02-23T07:22:04;6.40;99.90
59282;DHT22;45054;52.062;10.010;2024-02-23T07:24:29;6.50;99.90
59282;DHT22;45054;52.062;10.010;2024-02-23T07:26:55;6.50;99.90
59282;DHT22;45054;52.062;10.010;2024-02-23T07:29:20;6.50;99.90
59282;DHT22;45054;52.062;10.010;2024-02-23T07:31:46;6.50;99.90
59282;DHT22;45054;52.062;10.010;2024-02-23T07:34:11;6.50;99.90
59282;DHT22;45054;52.062;10.010;2024-02-23T07:36:37;6.50;99.90
59282;DHT22;45054;52.062;10.010;2024-02-23T07:39:04;6.50;99.90
59282;DHT22;45054;52.062;10.010;2024-02-23T07:41:29;6.50;99.90
59282;DHT22;45054;52.062;10.010;2024-02-23T07:43:55;6.50;99.90
59282;DHT22;45054;52.062;10.010;2024-02-23T07:46:20;6.50;99.90
59282;DHT22;45054;52.062;10.010;2024-02-23T07:48:46;6.60;99.90
59282;DHT22;45054;52.062;10.010;2024-02-23T07:51:12;6.60;99.90
59282;DHT22;45054;52.062;10.010;2024-02-23T07:53:37;6.60;99.90
59282;DHT22;45054;52.062;10.010;2024-02-23T07:56:07;6.60;99.90
59282;DHT22;45054;52.062;10.010;2024-02-23T07:58:33;6.60;99.90
59282;DHT22;45054;52.062;10.010;2024-02-23T08:00:58;6.60;99.90
59282;DHT22;45054;52.062;10.010;2024-02-23T08:03:24;6.60;99.90
59282;DHT22;45054;52.062;10.010;2024-02-23T08:05:49;6.60;99.90
59282;DHT22;45054;52.062;10.010;2024-02-23T08:08:15;6.60;99.90
59282;DHT22;45054;52.062;10.010;2024-02-23T08:10:40;6.60;99.90
59282;DHT22;45054;52.062;10.010;2024-02-23T08:13:07;6.60;99.90
59282;DHT22;45054;52.062;10.010;2024-02-23T08:15:33;6.60;99.90
59282;DHT22;45054;52.062;10.010;2024-02-23T08:18:00;6.60;99.90
59282;DHT22;45054;52.062;10.010;2024-02-23T08:20:26;6.70;99.90
59282;DHT22;45054;52.062;10.010;2024-02-23T08:22:51;6.70;99.90
59282;DHT22;45054;52.062;10.010;2024-02-23T08:25:17;6.80;99.90
59282;DHT22;45054;52.062;10.010;2024-02-23T08:27:42;6.80;99.90
59282;DHT22;45054;52.062;10.010;2024-02-23T08:30:10;6.80;99.90
59282;DHT22;45054;52.062;10.010;2024-02-23T08:32:36;6.90;99.90
59282;DHT22;45054;52.062;10.010;2024-02-23T08:35:01;6.90;99.90
59282;DHT22;45054;52.062;10.010;2024-02-23T08:37:27;6.90;99.90
59282;DHT22;45054;52.062;10.010;2024-02-23T08:39:53;6.90;99.90
59282;DHT22;45054;52.062;10.010;2024-02-23T08:42:18;7.00;99.90
59282;DHT22;45054;52.062;10.010;2024-02-23T08:44:44;7.00;99.90
59282;DHT22;45054;52.062;10.010;2024-02-23T08:47:11;7.10;99.90
59282;DHT22;45054;52.062;10.010;2024-02-23T08:49:37;7.10;99.90
59282;DHT22;45054;52.062;10.010;2024-02-23T08:52:03;7.20;99.90
59282;DHT22;45054;52.062;10.010;2024-02-23T08:54:29;7.20;99.90
59282;DHT22;45054;52.062;10.010;2024-02-23T08:56:54;7.30;99.90
59282;DHT22;45054;52.062;10.010;2024-02-23T08:59:20;7.30;99.90
59282;DHT22;45054;52.062;10.010;2024-02-23T09:01:45;7.30;99.90
59282;DHT22;45054;52.062;10.010;2024-02-23T09:04:13;7.30;99.90
59282;DHT22;45054;52.062;10.010;2024-02-23T09:06:38;7.20;99.90
59282;DHT22;45054;52.062;10.010;2024-02-23T09:09:04;7.20;99.90
59282;DHT22;45054;52.062;10.010;2024-02-23T09:11:29;7.30;99.90
59282;DHT22;45054;52.062;10.010;2024-02-23T09:13:55;7.40;99.90
59282;DHT22;45054;52.062;10.010;2024-02-23T09:16:20;7.30;99.90
59282;DHT22;45054;52.062;10.010;2024-02-23T09:18:46;7.30;99.90
59282;DHT22;45054;52.062;10.010;2024-02-23T09:21:14;7.30;99.90
59282;DHT22;45054;52.062;10.010;2024-02-23T09:23:39;7.30;99.90
59282;DHT22;45054;52.062;10.010;2024-02-23T09:26:09;7.30;99.90
59282;DHT22;45054;52.062;10.010;2024-02-23T09:28:34;7.30;99.90
59282;DHT22;45054;52.062;10.010;2024-02-23T09:31:00;7.20;99.90
59282;DHT22;45054;52.062;10.010;2024-02-23T09:33:25;7.20;99.90
59282;DHT22;45054;52.062;10.010;2024-02-23T09:35:51;7.30;99.90
59282;DHT22;45054;52.062;10.010;2024-02-23T09:38:18;7.30;99.90
59282;DHT22;45054;52.062;10.010;2024-02-23T09:40:44;7.20;99.90
59282;DHT22;45054;52.062;10.010;2024-02-23T09:43:10;7.20;99.90
59282;DHT22;45054;52.062;10.010;2024-02-23T09:45:37;7.10;99.90
59282;DHT22;45054;52.062;10.010;2024-02-23T09:48:03;7.20;99.90
59282;DHT22;45054;52.062;10.010;2024-02-23T09:50:30;7.30;99.90
59282;DHT22;45054;52.062;10.010;2024-02-23T09:52:57;7.40;99.90
59282;DHT22;45054;52.062;10.010;2024-02-23T09:55:25;7.40;99.90
59282;DHT22;45054;52.062;10.010;2024-02-23T09:57:52;7.40;99.90
59282;DHT22;45054;52.062;10.010;2024-02-23T10:00:20;7.50;99.90
59282;DHT22;45054;52.062;10.010;2024-02-23T10:02:46;7.50;99.90
59282;DHT22;45054;52.062;10.010;2024-02-23T10:05:12;7.50;99.90
59282;DHT22;45054;52.062;10.010;2024-02-23T10:07:39;7.60;99.90
59282;DHT22;45054;52.062;10.010;2024-02-23T10:10:06;7.60;99.90
59282;DHT22;45054;52.062;10.010;2024-02-23T10:12:34;7.50;99.90
59282;DHT22;45054;52.062;10.010;2024-02-23T10:15:00;7.50;99.90
59282;DHT22;45054;52.062;10.010;2024-02-23T10:17:26;7.50;99.90
59282;DHT22;45054;52.062;10.010;2024-02-23T10:19:51;7.50;99.90
59282;DHT22;45054;52.062;10.010;2024-02-23T10:22:17;7.50;99.90
59282;DHT22;45054;52.062;10.010;2024-02-23T10:24:42;7.60;99.90
59282;DHT22;45054;52.062;10.010;2024-02-23T10:27:08;7.70;99.90
59282;DHT22;45054;52.062;10.010;2024-02-23T10:29:35;7.80;99.90
59282;DHT22;45054;52.062;10.010;2024-02-23T10:32:01;7.90;99.90
59282;DHT22;45054;52.062;10.010;2024-02-23T10:34:27;8.00;99.90
59282;DHT22;45054;52.062;10.010;2024-02-23T10:36:55;8.00;99.90
59282;DHT22;45054;52.062;10.010;2024-02-23T10:39:24;8.00;99.90
59282;DHT22;45054;52.062;10.010;2024-02-23T10:41:57;8.00;99.90
59282;DHT22;45054;52.062;10.010;2024-02-23T10:44:24;8.00;99.90
59282;DHT22;45054;52.062;10.010;2024-02-23T10:46:52;8.10;99.90
59282;DHT22;45054;52.062;10.010;2024-02-23T10:49:18;8.10;99.90
59282;DHT22;45054;52.062;10.010;2024-02-23T10:51:44;8.10;99.90
59282;DHT22;45054;52.062;10.010;2024-02-23T10:54:11;8.30;99.90
59282;DHT22;45054;52.062;10.010;2024-02-23T10:56:37;8.30;99.90
59282;DHT22;45054;52.062;10.010;2024-02-23T10:59:03;8.40;99.90
59282;DHT22;45054;52.062;10.010;2024-02-23T11:01:29;8.40;99.90
59282;DHT22;45054;52.062;10.010;2024-02-23T11:03:56;8.40;99.90
59282;DHT22;45054;52.062;10.010;2024-02-23T11:06:27;8.60;99.90
59282;DHT22;45054;52.062;10.010;2024-02-23T11:08:53;8.50;99.90
59282;DHT22;45054;52.062;10.010;2024-02-23T11:11:19;8.60;99.90
59282;DHT22;45054;52.062;10.010;2024-02-23T11:13:45;8.60;99.90
59282;DHT22;45054;52.062;10.010;2024-02-23T11:16:10;8.70;99.90
59282;DHT22;45054;52.062;10.010;2024-02-23T11:18:38;8.70;99.90
59282;DHT22;45054;52.062;10.010;2024-02-23T11:21:09;8.80;99.90
59282;DHT22;45054;52.062;10.010;2024-02-23T11:23:41;8.90;99.90
59282;DHT22;45054;52.062;10.010;2024-02-23T11:26:09;8.80;99.90
59282;DHT22;45054;52.062;10.010;2024-02-23T11:28:48;8.80;99.90
59282;DHT22;45054;52.062;10.010;2024-02-23T11:31:14;8.70;99.90
59282;DHT22;45054;52.062;10.010;2024-02-23T11:33:40;8.80;99.90
59282;DHT22;45054;52.062;10.010;2024-02-23T11:36:08;8.80;99.90
59282;DHT22;45054;52.062;10.010;2024-02-23T11:38:34;8.80;99.90
59282;DHT22;45054;52.062;10.010;2024-02-23T11:40:59;8.80;99.90
59282;DHT22;45054;52.062;10.010;2024-02-23T11:43:25;8.60;99.90
59282;DHT22;45054;52.062;10.010;2024-02-23T11:45:51;8.60;99.90
59282;DHT22;45054;52.062;10.010;2024-02-23T11:48:17;8.60;99.90
59282;DHT22;45054;52.062;10.010;2024-02-23T11:50:43;8.70;99.90
59282;DHT22;45054;52.062;10.010;2024-02-23T11:53:10;8.80;99.90
59282;DHT22;45054;52.062;10.010;2024-02-23T11:55:35;8.80;99.90
59282;DHT22;45054;52.062;10.010;2024-02-23T11:58:01;8.80;99.90
59282;DHT22;45054;52.062;10.010;2024-02-23T12:00:27;8.90;99.90
59282;DHT22;45054;52.062;10.010;2024-02-23T12:02:52;8.90;99.90
59282;DHT22;45054;52.062;10.010;2024-02-23T12:05:18;9.00;99.90
59282;DHT22;45054;52.062;10.010;2024-02-23T12:07:43;9.00;99.90
59282;DHT22;45054;52.062;10.010;2024-02-23T12:10:11;9.10;99.90
59282;DHT22;45054;52.062;10.010;2024-02-23T12:12:36;9.10;99.90
59282;DHT22;45054;52.062;10.010;2024-02-23T12:15:02;9.20;99.90
59282;DHT22;45054;52.062;10.010;2024-02-23T12:17:28;9.30;99.90
59282;DHT22;45054;52.062;10.010;2024-02-23T12:19:58;9.30;99.90
59282;DHT22;45054;52.062;10.010;2024-02-23T12:22:24;9.50;99.90
59282;DHT22;45054;52.062;10.010;2024-02-23T12:24:50;9.40;99.90
59282;DHT22;45054;52.062;10.010;2024-02-23T12:27:18;9.30;99.90
59282;DHT22;45054;52.062;10.010;2024-02-23T12:29:51;9.20;99.90
59282;DHT22;45054;52.062;10.010;2024-02-23T12:32:19;9.20;99.90
59282;DHT22;45054;52.062;10.010;2024-02-23T12:34:45;9.20;99.90
59282;DHT22;45054;52.062;10.010;2024-02-23T12:37:14;9.30;99.90
59282;DHT22;45054;52.062;10.010;2024-02-23T12:39:40;9.40;99.90
59282;DHT22;45054;52.062;10.010;2024-02-23T12:42:05;9.40;99.90
59282;DHT22;45054;52.062;10.010;2024-02-23T12:44:32;9.40;99.90
59282;DHT22;45054;52.062;10.010;2024-02-23T12:46:58;9.40;99.90
59282;DHT22;45054;52.062;10.010;2024-02-23T12:49:23;9.40;99.90
59282;DHT22;45054;52.062;10.010;2024-02-23T12:51:49;9.40;99.90
59282;DHT22;45054;52.062;10.010;2024-02-23T12:54:14;9.60;99.90
59282;DHT22;45054;52.062;10.010;2024-02-23T12:56:40;9.70;99.90
59282;DHT22;45054;52.062;10.010;2024-02-23T12:59:06;9.80;99.90
59282;DHT22;45054;52.062;10.010;2024-02-23T13:01:33;9.70;99.90
59282;DHT22;45054;52.062;10.010;2024-02-23T13:03:58;9.60;99.90
59282;DHT22;45054;52.062;10.010;2024-02-23T13:06:24;9.60;99.90
59282;DHT22;45054;52.062;10.010;2024-02-23T13:08:49;9.60;99.90
59282;DHT22;45054;52.062;10.010;2024-02-23T13:11:15;9.60;99.90
59282;DHT22;45054;52.062;10.010;2024-02-23T13:13:40;9.60;99.90
59282;DHT22;45054;52.062;10.010;2024-02-23T13:16:06;9.50;99.90
59282;DHT22;45054;52.062;10.010;2024-02-23T13:18:33;9.40;99.90
59282;DHT22;45054;52.062;10.010;2024-02-23T13:20:59;9.50;99.90
59282;DHT22;45054;52.062;10.010;2024-02-23T13:23:24;9.60;99.90
59282;DHT22;45054;52.062;10.010;2024-02-23T13:25:50;9.60;99.90
59282;DHT22;45054;52.062;10.010;2024-02-23T13:28:15;9.60;99.90
59282;DHT22;45054;52.062;10.010;2024-02-23T13:30:41;9.60;99.90
59282;DHT22;45054;52.062;10.010;2024-02-23T13:33:07;9.50;99.90
59282;DHT22;45054;52.062;10.010;2024-02-23T13:35:34;9.50;99.90
59282;DHT22;45054;52.062;10.010;2024-02-23T13:38:00;9.40;99.90
59282;DHT22;45054;52.062;10.010;2024-02-23T13:40:26;9.30;99.90
59282;DHT22;45054;52.062;10.010;2024-02-23T13:42:52;9.30;99.90
59282;DHT22;45054;52.062;10.010;2024-02-23T13:45:17;9.30;99.90
59282;DHT22;45054;52.062;10.010;2024-02-23T13:47:55;9.20;99.90
59282;DHT22;45054;52.062;10.010;2024-02-23T13:50:21;9.20;99.90
59282;DHT22;45054;52.062;10.010;2024-02-23T13:52:48;9.10;99.90
59282;DHT22;45054;52.062;10.010;2024-02-23T13:55:14;9.10;99.90
59282;DHT22;45054;52.062;10.010;2024-02-23T13:57:39;9.20;99.90
59282;DHT22;45054;52.062;10.010;2024-02-23T14:00:06;9.10;99.90
59282;DHT22;45054;52.062;10.010;2024-02-23T14:02:31;9.30;99.90
59282;DHT22;45054;52.062;10.010;2024-02-23T14:05:01;9.30;99.90
59282;DHT22;45054;52.062;10.010;2024-02-23T14:07:26;9.50;99.90
59282;DHT22;45054;52.062;10.010;2024-02-23T14:09:53;9.60;99.90
59282;DHT22;45054;52.062;10.010;2024-02-23T14:12:19;9.50;99.90
59282;DHT22;45054;52.062;10.010;2024-02-23T14:14:44;9.50;99.90
59282;DHT22;45054;52.062;10.010;2024-02-23T14:17:10;9.50;99.90
59282;DHT22;45054;52.062;10.010;2024-02-23T14:19:35;9.50;99.90
59282;DHT22;45054;52.062;10.010;2024-02-23T14:22:01;9.50;99.90
59282;DHT22;45054;52.062;10.010;2024-02-23T14:24:26;9.40;99.90
59282;DHT22;45054;52.062;10.010;2024-02-23T14:26:53;9.40;99.90
59282;DHT22;45054;52.062;10.010;2024-02-23T14:29:19;9.40;99.90
59282;DHT22;45054;52.062;10.010;2024-02-23T14:31:44;9.30;99.90
59282;DHT22;45054;52.062;10.010;2024-02-23T14:34:10;9.30;99.90
59282;DHT22;45054;52.062;10.010;2024-02-23T14:36:35;9.20;99.90
59282;DHT22;45054;52.062;10.010;2024-02-23T14:39:01;9.20;99.90
59282;DHT22;45054;52.062;10.010;2024-02-23T14:41:27;9.20;99.90
59282;DHT22;45054;52.062;10.010;2024-02-23T14:43:53;9.20;99.90
59282;DHT22;45054;52.062;10.010;2024-02-23T14:46:19;9.10;99.90
59282;DHT22;45054;52.062;10.010;2024-02-23T14:48:45;9.10;99.90
59282;DHT22;45054;52.062;10.010;2024-02-23T14:51:10;9.10;99.90
59282;DHT22;45054;52.062;10.010;2024-02-23T14:53:36;9.10;99.90
59282;DHT22;45054;52.062;10.010;2024-02-23T14:56:01;9.10;99.90
59282;DHT22;45054;52.062;10.010;2024-02-23T14:58:27;9.10;99.90
59282;DHT22;45054;52.062;10.010;2024-02-23T15:00:54;9.10;99.90
59282;DHT22;45054;52.062;10.010;2024-02-23T15:03:19;9.10;99.90
59282;DHT22;45054;52.062;10.010;2024-02-23T15:05:45;9.10;99.90
59282;DHT22;45054;52.062;10.010;2024-02-23T15:08:11;9.10;99.90
59282;DHT22;45054;52.062;10.010;2024-02-23T15:10:36;9.30;99.90
59282;DHT22;45054;52.062;10.010;2024-02-23T15:13:02;9.40;99.90
59282;DHT22;45054;52.062;10.010;2024-02-23T15:15:28;9.50;99.90
59282;DHT22;45054;52.062;10.010;2024-02-23T15:17:55;9.40;99.90
59282;DHT22;45054;52.062;10.010;2024-02-23T15:20:20;9.40;99.90
59282;DHT22;45054;52.062;10.010;2024-02-23T15:22:46;9.40;99.90